createdAt,value
2023-01-21T00:01:00.157Z,102440.47
2023-01-21T00:03:26.746Z,102427.50
2023-01-21T00:05:53.259Z,102458.63
2023-01-21T00:08:19.754Z,102458.63
2023-01-21T00:10:46.368Z,102454.28
2023-01-21T00:13:12.798Z,102440.59
2023-01-21T00:15:39.480Z,102460.34
2023-01-21T00:18:06.148Z,102460.31
2023-01-21T00:20:32.907Z,102463.88
2023-01-21T00:22:59.759Z,102470.09
2023-01-21T00:25:26.181Z,102459.56
2023-01-21T00:27:52.720Z,102467.63
2023-01-21T00:30:19.613Z,102468.75
2023-01-21T00:32:46.133Z,102448.38
2023-01-21T00:35:12.512Z,102466.81
2023-01-21T00:37:39.106Z,102474.91
2023-01-21T00:40:06.959Z,102468.19
2023-01-21T00:42:33.357Z,102476.34
2023-01-21T00:45:00.064Z,102469.88
2023-01-21T00:47:26.831Z,102476.78
2023-01-21T00:49:53.221Z,102490.22
2023-01-21T00:52:19.646Z,102474.06
2023-01-21T00:54:46.059Z,102493.47
2023-01-21T00:57:13.785Z,102477.19
2023-01-21T00:59:40.561Z,102499.34
2023-01-21T01:02:07.292Z,102471.16
2023-01-21T01:04:33.751Z,102494.78
2023-01-21T01:07:00.147Z,102510.13
2023-01-21T01:09:26.679Z,102512.06
2023-01-21T01:11:53.122Z,102511.59
2023-01-21T01:14:19.915Z,102525.94
2023-01-21T01:16:46.312Z,102516.56
2023-01-21T01:19:12.996Z,102526.47
2023-01-21T01:21:39.500Z,102524.19
2023-01-21T01:24:06.297Z,102528.00
2023-01-21T01:26:35.395Z,102546.66
2023-01-21T01:29:04.363Z,102546.88
2023-01-21T01:31:30.804Z,102554.06
2023-01-21T01:33:57.730Z,102554.16
2023-01-21T01:36:24.161Z,102531.84
2023-01-21T01:38:51.561Z,102530.28
2023-01-21T01:41:24.227Z,102565.03
2023-01-21T01:44:04.208Z,102561.66
2023-01-21T01:46:36.077Z,102564.56
2023-01-21T01:49:09.757Z,102574.25
2023-01-21T01:51:58.821Z,102580.38
2023-01-21T01:54:56.164Z,102586.47
2023-01-21T01:57:28.072Z,102560.63
2023-01-21T01:59:54.775Z,102593.28
2023-01-21T02:02:21.262Z,102562.84
2023-01-21T02:04:55.088Z,102589.31
2023-01-21T02:07:24.907Z,102589.94
2023-01-21T02:09:54.944Z,102597.63
2023-01-21T02:12:22.017Z,102597.41
2023-01-21T02:14:49.123Z,102601.59
2023-01-21T02:17:49.475Z,102598.66
2023-01-21T02:20:38.975Z,102603.78
2023-01-21T02:23:41.449Z,102597.38
2023-01-21T02:26:41.282Z,102580.88
2023-01-21T02:29:25.525Z,102608.56
2023-01-21T02:32:20.892Z,102620.66
2023-01-21T02:35:12.129Z,102612.59
2023-01-21T02:38:00.081Z,102606.16
2023-01-21T02:40:42.068Z,102606.13
2023-01-21T02:43:46.785Z,102608.56
2023-01-21T02:46:31.553Z,102609.38
2023-01-21T02:49:07.151Z,102611.13
2023-01-21T02:51:35.299Z,102598.38
2023-01-21T02:54:16.379Z,102617.00
2023-01-21T02:56:44.547Z,102622.28
2023-01-21T02:59:12.109Z,102615.22
2023-01-21T03:02:04.859Z,102616.75
2023-01-21T03:04:55.942Z,102626.25
2023-01-21T03:07:36.977Z,102624.38
2023-01-21T03:10:23.989Z,102619.00
2023-01-21T03:13:01.764Z,102629.50
2023-01-21T03:16:03.658Z,102639.09
2023-01-21T03:18:36.078Z,102626.97
2023-01-21T03:21:07.105Z,102646.91
2023-01-21T03:23:38.794Z,102643.28
2023-01-21T03:26:07.751Z,102644.09
2023-01-21T03:28:39.005Z,102642.19
2023-01-21T03:31:21.141Z,102643.06
2023-01-21T03:33:52.327Z,102653.44
2023-01-21T03:36:34.758Z,102641.81
2023-01-21T03:39:09.933Z,102616.88
2023-01-21T03:41:39.810Z,102644.69
2023-01-21T03:44:06.704Z,102640.28
2023-01-21T03:46:58.727Z,102654.09
2023-01-21T03:49:34.679Z,102655.00
2023-01-21T03:52:02.812Z,102660.34
2023-01-21T03:54:29.350Z,102656.78
2023-01-21T03:56:55.918Z,102653.28
2023-01-21T03:59:22.378Z,102658.56
2023-01-21T04:01:48.855Z,102660.50
2023-01-21T04:04:15.289Z,102669.28
2023-01-21T04:06:41.657Z,102671.91
2023-01-21T04:09:08.185Z,102652.06
2023-01-21T04:11:34.629Z,102670.91
2023-01-21T04:14:01.241Z,102670.25
2023-01-21T04:16:28.575Z,102675.47
2023-01-21T04:18:55.248Z,102685.13
2023-01-21T04:21:21.648Z,102690.41
2023-01-21T04:23:48.070Z,102687.81
2023-01-21T04:26:16.363Z,102679.03
2023-01-21T04:28:43.029Z,102686.91
2023-01-21T04:31:09.484Z,102695.66
2023-01-21T04:33:35.991Z,102682.75
2023-01-21T04:36:02.429Z,102674.06
2023-01-21T04:38:28.863Z,102700.16
2023-01-21T04:40:55.379Z,102694.13
2023-01-21T04:43:21.843Z,102707.22
2023-01-21T04:45:50.101Z,102698.59
2023-01-21T04:48:17.750Z,102711.91
2023-01-21T04:50:46.516Z,102712.03
2023-01-21T04:53:13.023Z,102717.19
2023-01-21T04:55:39.453Z,102711.28
2023-01-21T04:58:06.182Z,102709.56
2023-01-21T05:00:32.596Z,102709.50
2023-01-21T05:02:58.983Z,102704.31
2023-01-21T05:05:25.502Z,102714.06
2023-01-21T05:07:55.201Z,102707.91
2023-01-21T05:10:21.620Z,102717.63
2023-01-21T05:12:48.587Z,102713.41
2023-01-21T05:15:15.189Z,102731.66
2023-01-21T05:17:41.597Z,102731.66
2023-01-21T05:20:08.973Z,102733.38
2023-01-21T05:22:35.457Z,102733.38
2023-01-21T05:25:01.902Z,102738.66
2023-01-21T05:27:28.325Z,102730.97
2023-01-21T05:29:54.842Z,102747.34
2023-01-21T05:32:21.279Z,102749.97
2023-01-21T05:34:47.691Z,102752.69
2023-01-21T05:37:14.713Z,102752.81
2023-01-21T05:39:41.183Z,102759.75
2023-01-21T05:42:07.741Z,102766.75
2023-01-21T05:44:34.116Z,102733.78
2023-01-21T05:47:00.523Z,102771.97
2023-01-21T05:49:26.924Z,102770.25
2023-01-21T05:51:53.307Z,102776.31
2023-01-21T05:54:19.744Z,102778.13
2023-01-21T05:56:46.177Z,102794.94
2023-01-21T05:59:12.808Z,102788.13
2023-01-21T06:01:39.195Z,102805.50
2023-01-21T06:04:05.592Z,102807.19
2023-01-21T06:06:31.992Z,102818.66
2023-01-21T06:08:58.886Z,102812.47
2023-01-21T06:11:25.384Z,102815.94
2023-01-21T06:13:51.989Z,102814.97
2023-01-21T06:16:18.416Z,102814.13
2023-01-21T06:18:44.847Z,102824.59
2023-01-21T06:21:11.253Z,102828.09
2023-01-21T06:23:37.919Z,102821.09
2023-01-21T06:26:04.472Z,102827.22
2023-01-21T06:28:30.913Z,102837.69
2023-01-21T06:30:57.557Z,102835.06
2023-01-21T06:33:24.227Z,102836.75
2023-01-21T06:35:50.712Z,102825.41
2023-01-21T06:38:17.107Z,102843.72
2023-01-21T06:40:43.915Z,102834.25
2023-01-21T06:43:10.421Z,102834.41
2023-01-21T06:45:36.829Z,102863.81
2023-01-21T06:48:03.532Z,102853.41
2023-01-21T06:50:30.037Z,102869.94
2023-01-21T06:52:56.468Z,102871.69
2023-01-21T06:55:22.932Z,102872.59
2023-01-21T06:57:49.355Z,102874.38
2023-01-21T07:00:16.619Z,102882.25
2023-01-21T07:02:43.324Z,102873.59
2023-01-21T07:05:09.846Z,102887.53
2023-01-21T07:07:36.362Z,102843.34
2023-01-21T07:10:02.892Z,102883.13
2023-01-21T07:12:29.332Z,102878.06
2023-01-21T07:14:55.793Z,102892.13
2023-01-21T07:17:23.065Z,102893.03
2023-01-21T07:19:49.467Z,102901.78
2023-01-21T07:22:16.139Z,102910.66
2023-01-21T07:24:42.560Z,102915.00
2023-01-21T07:27:09.359Z,102917.63
2023-01-21T07:29:35.756Z,102922.97
2023-01-21T07:32:02.674Z,102934.31
2023-01-21T07:34:29.191Z,102927.31
2023-01-21T07:36:55.700Z,102922.06
2023-01-21T07:39:22.695Z,102932.59
2023-01-21T07:41:49.138Z,102897.00
2023-01-21T07:44:15.683Z,102926.44
2023-01-21T07:46:42.136Z,102920.28
2023-01-21T07:49:08.909Z,102919.38
2023-01-21T07:51:35.362Z,102922.00
2023-01-21T07:54:01.819Z,102923.88
2023-01-21T07:56:28.248Z,102941.56
2023-01-21T07:58:54.945Z,102950.41
2023-01-21T08:01:24.408Z,102963.59
2023-01-21T08:03:51.643Z,102966.16
2023-01-21T08:06:18.050Z,102947.66
2023-01-21T08:08:44.455Z,102954.69
2023-01-21T08:11:10.942Z,102945.97
2023-01-21T08:13:37.348Z,102945.28
2023-01-21T08:16:04.576Z,102953.91
2023-01-21T08:18:31.204Z,102936.63
2023-01-21T08:20:58.899Z,102959.28
2023-01-21T08:23:26.498Z,102965.47
2023-01-21T08:25:53.921Z,102970.84
2023-01-21T08:28:21.729Z,102962.88
2023-01-21T08:30:48.846Z,102967.25
2023-01-21T08:33:15.676Z,102975.44
2023-01-21T08:35:43.448Z,102970.28
2023-01-21T08:38:09.866Z,102980.63
2023-01-21T08:40:36.294Z,102946.09
2023-01-21T08:43:04.655Z,102976.38
2023-01-21T08:45:31.454Z,102988.84
2023-01-21T08:47:57.973Z,102997.59
2023-01-21T08:50:24.704Z,103000.44
2023-01-21T08:52:55.455Z,102996.72
2023-01-21T08:55:24.903Z,103009.06
2023-01-21T08:57:53.400Z,103001.16
2023-01-21T09:00:21.406Z,102973.53
2023-01-21T09:02:49.980Z,103004.97
2023-01-21T09:05:18.315Z,103024.78
2023-01-21T09:07:45.679Z,103023.09
2023-01-21T09:10:12.715Z,103028.25
2023-01-21T09:12:41.950Z,103003.13
2023-01-21T09:15:08.741Z,103036.13
2023-01-21T09:17:35.155Z,103038.63
2023-01-21T09:20:01.573Z,103024.78
2023-01-21T09:22:27.980Z,103049.06
2023-01-21T09:24:54.378Z,103041.22
2023-01-21T09:27:27.149Z,103056.06
2023-01-21T09:29:54.778Z,103050.84
2023-01-21T09:32:21.167Z,103055.16
2023-01-21T09:34:47.540Z,103055.94
2023-01-21T09:37:13.910Z,103060.22
2023-01-21T09:39:40.286Z,103062.81
2023-01-21T09:42:17.760Z,103050.50
2023-01-21T09:44:49.827Z,103073.25
2023-01-21T09:47:28.076Z,103075.88
2023-01-21T09:50:16.652Z,103074.06
2023-01-21T09:52:46.608Z,103075.03
2023-01-21T09:55:24.130Z,103084.72
2023-01-21T09:58:23.733Z,103051.88
2023-01-21T10:00:58.818Z,103094.34
2023-01-21T10:03:43.586Z,103089.84
2023-01-21T10:06:12.222Z,103088.97
2023-01-21T10:08:44.530Z,103090.75
2023-01-21T10:11:13.852Z,103099.47
2023-01-21T10:14:05.113Z,103096.75
2023-01-21T10:16:43.976Z,103072.63
2023-01-21T10:19:17.253Z,103106.69
2023-01-21T10:21:56.888Z,103113.47
2023-01-21T10:24:33.042Z,103107.28
2023-01-21T10:27:00.297Z,103092.31
2023-01-21T10:29:27.605Z,103089.75
2023-01-21T10:32:02.624Z,103101.84
2023-01-21T10:34:37.976Z,103102.63
2023-01-21T10:37:41.574Z,103095.31
2023-01-21T10:40:17.236Z,103101.38
2023-01-21T10:42:51.568Z,103092.47
2023-01-21T10:45:34.315Z,103090.41
2023-01-21T10:48:00.664Z,103080.44
2023-01-21T10:50:39.510Z,103088.06
2023-01-21T10:53:28.907Z,103081.41
2023-01-21T10:56:04.112Z,103083.91
2023-01-21T10:58:45.991Z,103085.41
2023-01-21T11:01:22.584Z,103083.56
2023-01-21T11:03:59.212Z,103081.66
2023-01-21T11:06:26.457Z,103081.41
2023-01-21T11:08:58.219Z,103074.09
2023-01-21T11:11:33.066Z,103082.81
2023-01-21T11:13:59.627Z,103070.38
2023-01-21T11:16:48.895Z,103073.66
2023-01-21T11:19:22.833Z,103075.25
2023-01-21T11:22:13.964Z,103073.16
2023-01-21T11:24:49.302Z,103062.47
2023-01-21T11:27:34.829Z,103047.34
2023-01-21T11:30:01.891Z,103057.44
2023-01-21T11:32:30.260Z,103067.72
2023-01-21T11:35:10.428Z,103059.53
2023-01-21T11:37:38.199Z,103050.72
2023-01-21T11:40:14.743Z,103057.19
2023-01-21T11:42:49.448Z,103063.09
2023-01-21T11:45:29.963Z,103054.34
2023-01-21T11:47:57.586Z,103038.72
2023-01-21T11:50:35.555Z,103049.78
2023-01-21T11:53:08.885Z,103041.66
2023-01-21T11:55:40.671Z,103042.53
2023-01-21T11:58:20.001Z,103037.22
2023-01-21T12:00:48.319Z,103045.06
2023-01-21T12:03:18.920Z,103048.53
2023-01-21T12:05:49.588Z,103042.34
2023-01-21T12:08:24.005Z,103035.91
2023-01-21T12:10:52.963Z,103033.03
2023-01-21T12:13:26.349Z,103039.03
2023-01-21T12:16:32.324Z,103023.84
2023-01-21T12:19:03.619Z,103019.59
2023-01-21T12:22:12.671Z,103026.44
2023-01-21T12:24:42.117Z,103020.47
2023-01-21T12:27:46.835Z,103025.84
2023-01-21T12:31:05.922Z,103024.16
2023-01-21T12:33:32.336Z,103021.00
2023-01-21T12:36:10.949Z,103023.78
2023-01-21T12:38:44.839Z,103012.25
2023-01-21T12:41:20.772Z,103014.72
2023-01-21T12:43:52.834Z,103010.09
2023-01-21T12:46:35.060Z,103020.09
2023-01-21T12:49:16.467Z,103016.75
2023-01-21T12:51:46.268Z,103012.72
2023-01-21T12:54:34.755Z,103009.03
2023-01-21T12:57:20.399Z,103014.06
2023-01-21T12:59:54.694Z,102993.63
2023-01-21T13:02:40.880Z,103009.69
2023-01-21T13:05:21.651Z,103019.09
2023-01-21T13:07:54.253Z,103023.94
2023-01-21T13:10:30.670Z,103011.59
2023-01-21T13:13:14.299Z,103018.81
2023-01-21T13:15:44.975Z,103022.38
2023-01-21T13:18:23.537Z,103019.16
2023-01-21T13:20:58.887Z,103026.00
2023-01-21T13:23:46.506Z,103018.81
2023-01-21T13:26:31.762Z,102986.31
2023-01-21T13:29:16.194Z,103015.78
2023-01-21T13:31:58.106Z,103015.22
2023-01-21T13:34:45.069Z,103039.47
2023-01-21T13:37:20.702Z,103045.78
2023-01-21T13:40:00.098Z,103041.44
2023-01-21T13:42:54.722Z,103036.06
2023-01-21T13:46:06.448Z,103042.41
2023-01-21T13:48:44.938Z,103039.63
2023-01-21T13:51:44.177Z,103045.00
2023-01-21T13:54:25.947Z,103043.94
2023-01-21T13:57:33.458Z,103041.81
2023-01-21T14:00:12.821Z,103051.19
2023-01-21T14:02:48.628Z,103048.06
2023-01-21T14:05:47.425Z,103048.47
2023-01-21T14:08:24.929Z,103031.31
2023-01-21T14:10:56.450Z,103045.31
2023-01-21T14:13:47.913Z,103046.38
2023-01-21T14:16:26.588Z,103051.84
2023-01-21T14:19:28.236Z,103057.28
2023-01-21T14:22:23.999Z,103066.22
2023-01-21T14:25:05.640Z,103063.88
2023-01-21T14:27:46.291Z,103057.19
2023-01-21T14:30:20.817Z,103060.28
2023-01-21T14:32:54.236Z,103040.41
2023-01-21T14:35:41.718Z,103069.16
2023-01-21T14:38:43.530Z,103063.22
2023-01-21T14:41:11.673Z,103041.84
2023-01-21T14:43:38.053Z,103069.09
2023-01-21T14:46:22.601Z,103058.63
2023-01-21T14:49:01.264Z,103064.97
2023-01-21T14:51:30.877Z,103057.47
2023-01-21T14:54:04.308Z,103076.78
2023-01-21T14:56:35.238Z,103073.47
2023-01-21T14:59:08.126Z,103070.16
2023-01-21T15:01:44.994Z,103072.19
2023-01-21T15:04:20.520Z,103075.88
2023-01-21T15:06:50.548Z,103055.41
2023-01-21T15:09:23.141Z,103035.69
2023-01-21T15:11:55.329Z,103072.16
2023-01-21T15:14:25.897Z,103074.19
2023-01-21T15:16:52.943Z,103078.78
2023-01-21T15:19:34.277Z,103078.97
2023-01-21T15:22:18.353Z,103077.66
2023-01-21T15:25:15.504Z,103086.50
2023-01-21T15:27:42.134Z,103092.13
2023-01-21T15:30:28.680Z,103099.41
2023-01-21T15:32:55.886Z,103087.47
2023-01-21T15:35:32.987Z,103089.94
2023-01-21T15:38:04.108Z,103091.97
2023-01-21T15:40:38.976Z,103099.94
2023-01-21T15:43:32.983Z,103104.41
2023-01-21T15:46:19.621Z,103100.22
2023-01-21T15:49:08.903Z,103103.00
2023-01-21T15:52:13.434Z,103105.75
2023-01-21T15:54:54.088Z,103101.63
2023-01-21T15:57:37.792Z,103100.88
2023-01-21T16:00:23.114Z,103101.84
2023-01-21T16:03:15.929Z,103102.03
2023-01-21T16:06:04.237Z,103103.88
2023-01-21T16:08:41.456Z,103104.06
2023-01-21T16:11:41.191Z,103098.94
2023-01-21T16:14:21.870Z,103112.31
2023-01-21T16:17:02.577Z,103101.00
2023-01-21T16:19:36.491Z,103082.31
2023-01-21T16:22:08.774Z,103096.94
2023-01-21T16:24:43.582Z,103095.38
2023-01-21T16:27:18.940Z,103077.31
2023-01-21T16:29:45.477Z,103107.00
2023-01-21T16:32:20.474Z,103102.66
2023-01-21T16:34:47.607Z,103108.06
2023-01-21T16:37:20.747Z,103100.25
2023-01-21T16:39:47.589Z,103110.84
2023-01-21T16:42:24.960Z,103105.69
2023-01-21T16:44:52.377Z,103084.97
2023-01-21T16:47:33.353Z,103115.25
2023-01-21T16:50:00.974Z,103093.19
2023-01-21T16:52:28.284Z,103100.97
2023-01-21T16:54:55.578Z,103087.91
2023-01-21T16:57:31.441Z,103105.97
2023-01-21T17:00:02.063Z,103104.16
2023-01-21T17:02:33.389Z,103109.28
2023-01-21T17:05:04.489Z,103100.50
2023-01-21T17:07:32.345Z,103109.94
2023-01-21T17:10:20.346Z,103095.75
2023-01-21T17:12:49.828Z,103115.28
2023-01-21T17:15:19.026Z,103110.75
2023-01-21T17:17:46.201Z,103110.66
2023-01-21T17:20:49.156Z,103110.78
2023-01-21T17:23:21.436Z,103118.84
2023-01-21T17:26:09.055Z,103116.38
2023-01-21T17:28:45.356Z,103136.38
2023-01-21T17:31:15.074Z,103137.19
2023-01-21T17:33:43.794Z,103132.78
2023-01-21T17:36:15.467Z,103145.09
2023-01-21T17:38:45.065Z,103134.50
2023-01-21T17:41:25.128Z,103137.06
2023-01-21T17:43:55.434Z,103141.50
2023-01-21T17:46:23.114Z,103142.94
2023-01-21T17:49:14.253Z,103134.28
2023-01-21T17:51:42.848Z,103127.47
2023-01-21T17:54:23.008Z,103140.59
2023-01-21T17:56:55.885Z,103120.44
2023-01-21T17:59:28.775Z,103138.16
2023-01-21T18:01:55.994Z,103137.28
2023-01-21T18:04:23.165Z,103125.09
2023-01-21T18:06:52.090Z,103129.44
2023-01-21T18:09:20.812Z,103124.34
2023-01-21T18:11:48.362Z,103113.06
2023-01-21T18:14:20.560Z,103118.06
2023-01-21T18:16:47.561Z,103135.75
2023-01-21T18:19:29.758Z,103105.94
2023-01-21T18:21:56.622Z,103142.03
2023-01-21T18:24:23.973Z,103141.13
2023-01-21T18:26:50.523Z,103140.19
2023-01-21T18:29:18.402Z,103139.28
2023-01-21T18:31:45.914Z,103149.94
2023-01-21T18:34:12.363Z,103142.88
2023-01-21T18:36:40.385Z,103141.06
2023-01-21T18:39:14.418Z,103141.13
2023-01-21T18:41:41.035Z,103153.34
2023-01-21T18:44:08.067Z,103151.69
2023-01-21T18:46:39.376Z,103158.56
2023-01-21T18:49:12.652Z,103149.94
2023-01-21T18:51:39.147Z,103153.34
2023-01-21T18:54:07.227Z,103143.69
2023-01-21T18:56:33.799Z,103147.16
2023-01-21T18:59:00.365Z,103140.19
2023-01-21T19:01:26.857Z,103147.09
2023-01-21T19:03:54.860Z,103148.03
2023-01-21T19:06:23.501Z,103154.09
2023-01-21T19:08:49.966Z,103144.44
2023-01-21T19:11:16.700Z,103146.16
2023-01-21T19:13:43.181Z,103136.56
2023-01-21T19:16:18.012Z,103127.78
2023-01-21T19:18:44.504Z,103134.00
2023-01-21T19:21:11.310Z,103109.75
2023-01-21T19:23:37.914Z,103113.19
2023-01-21T19:26:04.927Z,103114.22
2023-01-21T19:28:31.548Z,103105.53
2023-01-21T19:30:58.381Z,103118.53
2023-01-21T19:33:25.548Z,103112.63
2023-01-21T19:35:59.524Z,103117.63
2023-01-21T19:38:26.494Z,103129.06
2023-01-21T19:40:54.225Z,103130.81
2023-01-21T19:43:21.623Z,103116.00
2023-01-21T19:45:50.108Z,103123.91
2023-01-21T19:48:19.942Z,103097.84
2023-01-21T19:50:46.801Z,103121.25
2023-01-21T19:53:18.395Z,103105.69
2023-01-21T19:55:46.227Z,103109.91
2023-01-21T19:58:22.246Z,103127.63
2023-01-21T20:00:50.906Z,103116.25
2023-01-21T20:03:19.129Z,103128.63
2023-01-21T20:05:47.886Z,103128.72
2023-01-21T20:08:21.468Z,103125.22
2023-01-21T20:10:47.910Z,103117.53
2023-01-21T20:13:15.506Z,103123.78
2023-01-21T20:15:44.599Z,103114.19
2023-01-21T20:18:21.784Z,103110.81
2023-01-21T20:20:48.230Z,103109.34
2023-01-21T20:23:16.688Z,103120.63
2023-01-21T20:25:45.346Z,103118.00
2023-01-21T20:28:20.224Z,103119.78
2023-01-21T20:30:48.027Z,103122.47
2023-01-21T20:33:17.499Z,103098.25
2023-01-21T20:35:53.613Z,103125.19
2023-01-21T20:38:26.724Z,103127.84
2023-01-21T20:40:53.182Z,103133.97
2023-01-21T20:43:20.446Z,103139.25
2023-01-21T20:45:47.951Z,103143.59
2023-01-21T20:48:24.234Z,103132.09
2023-01-21T20:50:52.114Z,103132.94
2023-01-21T20:53:19.132Z,103131.16
2023-01-21T20:55:47.338Z,103132.75
2023-01-21T20:58:14.818Z,103135.38
2023-01-21T21:00:43.203Z,103132.72
2023-01-21T21:03:10.481Z,103132.56
2023-01-21T21:05:37.049Z,103140.47
2023-01-21T21:08:03.758Z,103129.16
2023-01-21T21:10:36.171Z,103120.31
2023-01-21T21:13:03.597Z,103135.97
2023-01-21T21:15:32.392Z,103135.13
2023-01-21T21:17:59.375Z,103136.72
2023-01-21T21:20:34.199Z,103131.44
2023-01-21T21:23:01.401Z,103132.31
2023-01-21T21:25:30.453Z,103133.22
2023-01-21T21:27:56.884Z,103133.22
2023-01-21T21:30:29.728Z,103127.03
2023-01-21T21:32:58.014Z,103121.91
2023-01-21T21:35:26.131Z,103136.56
2023-01-21T21:37:54.350Z,103142.75
2023-01-21T21:40:22.751Z,103139.25
2023-01-21T21:43:08.085Z,103127.19
2023-01-21T21:45:36.333Z,103137.47
2023-01-21T21:48:23.339Z,103138.34
2023-01-21T21:50:56.889Z,103133.03
2023-01-21T21:53:23.953Z,103144.41
2023-01-21T21:55:50.359Z,103115.69
2023-01-21T21:58:16.969Z,103128.66
2023-01-21T22:00:43.366Z,103140.94
2023-01-21T22:03:11.724Z,103127.78
2023-01-21T22:05:38.171Z,103140.91
2023-01-21T22:08:05.094Z,103136.50
2023-01-21T22:10:31.525Z,103133.91
2023-01-21T22:12:57.918Z,103139.97
2023-01-21T22:15:24.328Z,103124.19
2023-01-21T22:17:50.781Z,103146.91
2023-01-21T22:20:17.486Z,103123.34
2023-01-21T22:22:43.900Z,103130.16
2023-01-21T22:25:11.766Z,103134.63
2023-01-21T22:27:38.175Z,103135.47
2023-01-21T22:30:05.375Z,103141.44
2023-01-21T22:32:31.786Z,103122.88
2023-01-21T22:34:58.203Z,103152.78
2023-01-21T22:37:27.384Z,103141.25
2023-01-21T22:39:54.078Z,103135.13
2023-01-21T22:42:20.527Z,103118.31
2023-01-21T22:44:46.917Z,103128.28
2023-01-21T22:47:13.407Z,103133.28
2023-01-21T22:49:39.838Z,103106.84
2023-01-21T22:52:06.300Z,103132.53
2023-01-21T22:54:32.683Z,103123.84
2023-01-21T22:56:59.299Z,103129.03
2023-01-21T22:59:25.707Z,103129.84
2023-01-21T23:01:52.298Z,103135.94
2023-01-21T23:04:18.833Z,103130.84
2023-01-21T23:06:47.597Z,103136.84
2023-01-21T23:09:15.497Z,103095.59
2023-01-21T23:11:42.320Z,103110.69
2023-01-21T23:14:09.797Z,103122.72
2023-01-21T23:16:36.321Z,103116.53
2023-01-21T23:19:03.319Z,103122.75
2023-01-21T23:21:29.763Z,103117.47
2023-01-21T23:23:56.287Z,103113.06
2023-01-21T23:26:23.032Z,103108.84
2023-01-21T23:28:53.871Z,103105.25
2023-01-21T23:31:20.414Z,103088.97
2023-01-21T23:33:56.082Z,103064.19
2023-01-21T23:36:22.889Z,103114.03
2023-01-21T23:38:49.312Z,103108.81
2023-01-21T23:41:17.157Z,103120.25
2023-01-21T23:43:43.952Z,103116.66
2023-01-21T23:46:19.849Z,103106.16
2023-01-21T23:48:46.811Z,103109.66
2023-01-21T23:51:15.095Z,103087.09
2023-01-21T23:53:42.116Z,103101.75
2023-01-21T23:56:24.035Z,103111.44
2023-01-21T23:58:50.809Z,103084.53
